sensor_id;sensor_type;location;lat;lon;timestamp;pressure;altitude;pressure_sealevel;temperature;humidity
63773;BME280;49919;53.612;55.898;2022-07-29T00:00:16;99493.97;;;17.95;58.12
63773;BME280;49919;53.612;55.898;2022-07-29T00:01:47;99492.34;;;17.94;58.27
63773;BME280;49919;53.612;55.898;2022-07-29T00:03:18;99495.84;;;17.95;58.06
63773;BME280;49919;53.612;55.898;2022-07-29T00:04:49;99500.13;;;17.96;58.11
63773;BME280;49919;53.612;55.898;2022-07-29T00:06:19;99501.22;;;17.95;58.09
63773;BME280;49919;53.612;55.898;2022-07-29T00:07:51;99497.22;;;17.92;58.25
63773;BME280;49919;53.612;55.898;2022-07-29T00:09:21;99505.56;;;17.91;58.21
63773;BME280;49919;53.612;55.898;2022-07-29T00:10:52;99491.59;;;17.89;58.48
63773;BME280;49919;53.612;55.898;2022-07-29T00:12:23;99501.81;;;17.87;58.42
63773;BME280;49919;53.612;55.898;2022-07-29T00:13:54;99505.88;;;17.84;58.34
63773;BME280;49919;53.612;55.898;2022-07-29T00:15:28;99500.50;;;17.84;58.48
63773;BME280;49919;53.612;55.898;2022-07-29T00:16:59;99499.16;;;17.81;58.45
63773;BME280;49919;53.612;55.898;2022-07-29T00:18:29;99498.66;;;17.79;58.54
63773;BME280;49919;53.612;55.898;2022-07-29T00:20:00;99493.81;;;17.76;58.41
63773;BME280;49919;53.612;55.898;2022-07-29T00:21:31;99499.50;;;17.75;58.49
63773;BME280;49919;53.612;55.898;2022-07-29T00:23:02;99507.84;;;17.73;58.49
63773;BME280;49919;53.612;55.898;2022-07-29T00:24:33;99504.09;;;17.74;58.33
63773;BME280;49919;53.612;55.898;2022-07-29T00:26:03;99511.34;;;17.74;58.62
63773;BME280;49919;53.612;55.898;2022-07-29T00:27:35;99507.06;;;17.73;58.47
63773;BME280;49919;53.612;55.898;2022-07-29T00:29:06;99514.84;;;17.74;58.58
63773;BME280;49919;53.612;55.898;2022-07-29T00:30:36;99509.47;;;17.74;58.43
63773;BME280;49919;53.612;55.898;2022-07-29T00:32:07;99506.25;;;17.72;58.45
63773;BME280;49919;53.612;55.898;2022-07-29T00:33:38;99515.66;;;17.75;58.51
63773;BME280;49919;53.612;55.898;2022-07-29T00:35:08;99511.84;;;17.76;58.33
63773;BME280;49919;53.612;55.898;2022-07-29T00:36:58;99516.41;;;17.75;58.57
63773;BME280;49919;53.612;55.898;2022-07-29T00:38:28;99505.66;;;17.75;58.68
63773;BME280;49919;53.612;55.898;2022-07-29T00:39:59;99509.16;;;17.76;58.51
63773;BME280;49919;53.612;55.898;2022-07-29T00:41:30;99506.78;;;17.74;58.86
63773;BME280;49919;53.612;55.898;2022-07-29T00:43:01;99512.16;;;17.74;58.68
63773;BME280;49919;53.612;55.898;2022-07-29T00:44:36;99511.84;;;17.76;58.77
63773;BME280;49919;53.612;55.898;2022-07-29T00:46:06;99509.97;;;17.76;58.71
63773;BME280;49919;53.612;55.898;2022-07-29T00:47:37;99505.91;;;17.79;58.70
63773;BME280;49919;53.612;55.898;2022-07-29T00:49:08;99507.50;;;17.80;58.63
63773;BME280;49919;53.612;55.898;2022-07-29T00:50:38;99510.72;;;17.82;58.51
63773;BME280;49919;53.612;55.898;2022-07-29T00:52:10;99512.56;;;17.87;58.47
63773;BME280;49919;53.612;55.898;2022-07-29T00:53:41;99509.88;;;17.87;58.43
63773;BME280;49919;53.612;55.898;2022-07-29T00:55:13;99508.00;;;17.87;58.25
63773;BME280;49919;53.612;55.898;2022-07-29T00:56:44;99501.53;;;17.88;58.25
63773;BME280;49919;53.612;55.898;2022-07-29T00:58:15;99508.25;;;17.91;58.18
63773;BME280;49919;53.612;55.898;2022-07-29T00:59:45;99513.06;;;17.94;58.33
63773;BME280;49919;53.612;55.898;2022-07-29T01:01:16;99508.22;;;17.96;58.16
63773;BME280;49919;53.612;55.898;2022-07-29T01:02:47;99509.50;;;17.98;58.02
63773;BME280;49919;53.612;55.898;2022-07-29T01:04:21;99509.75;;;18.02;57.89
63773;BME280;49919;53.612;55.898;2022-07-29T01:05:52;99504.88;;;18.04;57.67
63773;BME280;49919;53.612;55.898;2022-07-29T01:07:24;99508.63;;;18.08;57.58
63773;BME280;49919;53.612;55.898;2022-07-29T01:08:56;99504.28;;;18.12;57.37
63773;BME280;49919;53.612;55.898;2022-07-29T01:10:27;99506.13;;;18.17;57.24
63773;BME280;49919;53.612;55.898;2022-07-29T01:11:58;99513.34;;;18.21;57.10
63773;BME280;49919;53.612;55.898;2022-07-29T01:13:29;99518.16;;;18.24;57.25
63773;BME280;49919;53.612;55.898;2022-07-29T01:15:02;99510.59;;;18.26;56.94
63773;BME280;49919;53.612;55.898;2022-07-29T01:16:37;99509.22;;;18.29;56.89
63773;BME280;49919;53.612;55.898;2022-07-29T01:18:32;99513.81;;;18.28;57.07
63773;BME280;49919;53.612;55.898;2022-07-29T01:20:03;99510.59;;;18.26;57.07
63773;BME280;49919;53.612;55.898;2022-07-29T01:23:16;99512.19;;;18.27;57.03
63773;BME280;49919;53.612;55.898;2022-07-29T01:26:52;99511.41;;;18.27;56.81
63773;BME280;49919;53.612;55.898;2022-07-29T01:28:44;99513.34;;;18.21;56.96
63773;BME280;49919;53.612;55.898;2022-07-29T01:30:18;99512.81;;;18.19;56.97
63773;BME280;49919;53.612;55.898;2022-07-29T01:31:51;99517.69;;;18.17;56.98
63773;BME280;49919;53.612;55.898;2022-07-29T01:33:24;99515.81;;;18.18;56.93
63773;BME280;49919;53.612;55.898;2022-07-29T01:35:26;99509.09;;;18.15;57.11
63773;BME280;49919;53.612;55.898;2022-07-29T01:37:06;99510.19;;;18.14;57.10
63773;BME280;49919;53.612;55.898;2022-07-29T01:38:39;99511.84;;;18.10;57.17
63773;BME280;49919;53.612;55.898;2022-07-29T01:40:13;99515.06;;;18.12;57.31
63773;BME280;49919;53.612;55.898;2022-07-29T01:41:50;99514.50;;;18.15;57.00
63773;BME280;49919;53.612;55.898;2022-07-29T01:43:34;99513.41;;;18.16;57.17
63773;BME280;49919;53.612;55.898;2022-07-29T01:46:09;99512.53;;;18.21;57.16
63773;BME280;49919;53.612;55.898;2022-07-29T01:47:15;99514.66;;;18.24;56.93
63773;BME280;49919;53.612;55.898;2022-07-29T01:48:48;99515.97;;;18.26;57.11
63773;BME280;49919;53.612;55.898;2022-07-29T01:50:23;99518.91;;;18.30;56.93
63773;BME280;49919;53.612;55.898;2022-07-29T01:52:05;99518.63;;;18.31;56.93
63773;BME280;49919;53.612;55.898;2022-07-29T01:53:38;99515.91;;;18.36;56.95
63773;BME280;49919;53.612;55.898;2022-07-29T01:55:13;99514.22;;;18.40;56.93
63773;BME280;49919;53.612;55.898;2022-07-29T01:56:46;99514.72;;;18.42;56.86
63773;BME280;49919;53.612;55.898;2022-07-29T01:58:17;99518.97;;;18.48;56.80
63773;BME280;49919;53.612;55.898;2022-07-29T01:59:48;99517.84;;;18.55;56.50
63773;BME280;49919;53.612;55.898;2022-07-29T02:01:20;99513.50;;;18.59;56.36
63773;BME280;49919;53.612;55.898;2022-07-29T02:02:53;99519.91;;;18.63;56.19
63773;BME280;49919;53.612;55.898;2022-07-29T02:04:24;99522.13;;;18.61;56.26
63773;BME280;49919;53.612;55.898;2022-07-29T02:05:56;99515.84;;;18.65;56.20
63773;BME280;49919;53.612;55.898;2022-07-29T02:07:27;99515.81;;;18.70;56.19
63773;BME280;49919;53.612;55.898;2022-07-29T02:08:59;99515.00;;;18.70;56.14
63773;BME280;49919;53.612;55.898;2022-07-29T02:10:32;99517.19;;;18.68;56.18
63773;BME280;49919;53.612;55.898;2022-07-29T02:12:04;99513.41;;;18.69;56.18
63773;BME280;49919;53.612;55.898;2022-07-29T02:13:36;99514.50;;;18.68;56.34
63773;BME280;49919;53.612;55.898;2022-07-29T02:15:07;99515.28;;;18.68;56.42
63773;BME280;49919;53.612;55.898;2022-07-29T02:16:40;99521.25;;;18.65;56.45
63773;BME280;49919;53.612;55.898;2022-07-29T02:18:15;99512.38;;;18.65;56.43
63773;BME280;49919;53.612;55.898;2022-07-29T02:19:47;99514.53;;;18.63;56.66
63773;BME280;49919;53.612;55.898;2022-07-29T02:21:25;99510.19;;;18.67;56.59
63773;BME280;49919;53.612;55.898;2022-07-29T02:22:58;99509.38;;;18.66;56.39
63773;BME280;49919;53.612;55.898;2022-07-29T02:24:30;99515.56;;;18.67;56.61
63773;BME280;49919;53.612;55.898;2022-07-29T02:26:01;99516.59;;;18.71;56.45
63773;BME280;49919;53.612;55.898;2022-07-29T02:27:33;99522.19;;;18.79;56.20
63773;BME280;49919;53.612;55.898;2022-07-29T02:29:05;99515.69;;;18.80;56.09
63773;BME280;49919;53.612;55.898;2022-07-29T02:30:39;99514.91;;;18.80;55.92
63773;BME280;49919;53.612;55.898;2022-07-29T02:32:10;99521.88;;;18.81;56.17
63773;BME280;49919;53.612;55.898;2022-07-29T02:33:44;99518.31;;;18.86;56.08
63773;BME280;49919;53.612;55.898;2022-07-29T02:35:16;99517.50;;;18.85;56.10
63773;BME280;49919;53.612;55.898;2022-07-29T02:36:47;99514.31;;;18.83;56.11
63773;BME280;49919;53.612;55.898;2022-07-29T02:38:19;99518.91;;;18.82;56.18
63773;BME280;49919;53.612;55.898;2022-07-29T02:40:10;99517.59;;;18.80;56.38
63773;BME280;49919;53.612;55.898;2022-07-29T02:43:12;99516.56;;;18.76;56.42
63773;BME280;49919;53.612;55.898;2022-07-29T02:44:43;99517.59;;;18.80;56.37
63773;BME280;49919;53.612;55.898;2022-07-29T02:46:18;99521.09;;;18.80;56.46
63773;BME280;49919;53.612;55.898;2022-07-29T02:47:49;99521.00;;;18.86;56.60
63773;BME280;49919;53.612;55.898;2022-07-29T02:49:38;99519.34;;;18.90;56.70
63773;BME280;49919;53.612;55.898;2022-07-29T02:51:13;99513.09;;;18.94;56.78
63773;BME280;49919;53.612;55.898;2022-07-29T02:52:47;99514.25;;;19.07;56.59
63773;BME280;49919;53.612;55.898;2022-07-29T02:54:41;99527.34;;;19.18;56.56
63773;BME280;49919;53.612;55.898;2022-07-29T02:56:13;99516.03;;;19.35;56.17
63773;BME280;49919;53.612;55.898;2022-07-29T02:57:49;99522.69;;;19.43;55.81
63773;BME280;49919;53.612;55.898;2022-07-29T02:59:22;99519.84;;;19.53;55.50
63773;BME280;49919;53.612;55.898;2022-07-29T03:00:55;99528.59;;;19.64;55.13
63773;BME280;49919;53.612;55.898;2022-07-29T03:02:26;99522.63;;;19.67;55.27
63773;BME280;49919;53.612;55.898;2022-07-29T03:03:57;99526.81;;;19.73;55.00
63773;BME280;49919;53.612;55.898;2022-07-29T03:05:31;99530.25;;;19.78;54.70
63773;BME280;49919;53.612;55.898;2022-07-29T03:07:02;99527.25;;;19.80;54.41
63773;BME280;49919;53.612;55.898;2022-07-29T03:08:34;99520.56;;;19.77;54.38
63773;BME280;49919;53.612;55.898;2022-07-29T03:10:05;99529.22;;;19.74;54.42
63773;BME280;49919;53.612;55.898;2022-07-29T03:11:37;99527.44;;;19.70;54.43
63773;BME280;49919;53.612;55.898;2022-07-29T03:13:08;99534.28;;;19.62;54.65
63773;BME280;49919;53.612;55.898;2022-07-29T03:14:39;99529.47;;;19.59;54.66
63773;BME280;49919;53.612;55.898;2022-07-29T03:16:10;99531.94;;;19.56;54.57
63773;BME280;49919;53.612;55.898;2022-07-29T03:17:41;99531.28;;;19.45;54.94
63773;BME280;49919;53.612;55.898;2022-07-29T03:19:13;99532.44;;;19.39;55.10
63773;BME280;49919;53.612;55.898;2022-07-29T03:20:44;99527.84;;;19.39;55.20
63773;BME280;49919;53.612;55.898;2022-07-29T03:22:15;99524.63;;;19.37;55.23
63773;BME280;49919;53.612;55.898;2022-07-29T03:23:46;99537.03;;;19.38;55.18
63773;BME280;49919;53.612;55.898;2022-07-29T03:25:18;99533.25;;;19.39;55.10
63773;BME280;49919;53.612;55.898;2022-07-29T03:26:49;99534.63;;;19.37;55.23
63773;BME280;49919;53.612;55.898;2022-07-29T03:28:20;99540.00;;;19.37;55.11
63773;BME280;49919;53.612;55.898;2022-07-29T03:29:52;99534.63;;;19.37;55.28
63773;BME280;49919;53.612;55.898;2022-07-29T03:31:23;99538.41;;;19.36;55.21
63773;BME280;49919;53.612;55.898;2022-07-29T03:32:54;99538.41;;;19.36;55.17
63773;BME280;49919;53.612;55.898;2022-07-29T03:34:25;99537.31;;;19.37;55.48
63773;BME280;49919;53.612;55.898;2022-07-29T03:35:56;99545.06;;;19.43;55.49
63773;BME280;49919;53.612;55.898;2022-07-29T03:37:26;99533.41;;;19.48;55.51
63773;BME280;49919;53.612;55.898;2022-07-29T03:38:57;99538.16;;;19.56;55.27
63773;BME280;49919;53.612;55.898;2022-07-29T03:40:38;99539.63;;;19.67;55.24
63773;BME280;49919;53.612;55.898;2022-07-29T03:42:11;99545.84;;;19.81;54.82
63773;BME280;49919;53.612;55.898;2022-07-29T03:43:44;99548.47;;;19.87;54.52
63773;BME280;49919;53.612;55.898;2022-07-29T03:45:17;99544.72;;;20.01;54.39
63773;BME280;49919;53.612;55.898;2022-07-29T03:46:49;99544.84;;;20.10;54.05
63773;BME280;49919;53.612;55.898;2022-07-29T03:48:21;99554.38;;;20.21;54.03
63773;BME280;49919;53.612;55.898;2022-07-29T03:49:53;99548.69;;;20.36;53.83
63773;BME280;49919;53.612;55.898;2022-07-29T03:51:24;99542.97;;;20.57;53.35
63773;BME280;49919;53.612;55.898;2022-07-29T03:52:55;99545.09;;;20.73;53.04
63773;BME280;49919;53.612;55.898;2022-07-29T03:54:26;99547.78;;;20.87;52.53
63773;BME280;49919;53.612;55.898;2022-07-29T03:55:58;99554.09;;;20.96;52.11
63773;BME280;49919;53.612;55.898;2022-07-29T03:57:30;99553.38;;;21.04;52.09
63773;BME280;49919;53.612;55.898;2022-07-29T03:59:01;99542.66;;;21.13;51.77
63773;BME280;49919;53.612;55.898;2022-07-29T04:00:32;99541.03;;;21.26;51.56
63773;BME280;49919;53.612;55.898;2022-07-29T04:02:04;99544.84;;;21.38;51.55
63773;BME280;49919;53.612;55.898;2022-07-29T04:03:35;99531.56;;;21.50;51.21
63773;BME280;49919;53.612;55.898;2022-07-29T04:05:11;99539.03;;;21.67;51.11
63773;BME280;49919;53.612;55.898;2022-07-29T04:06:42;99551.59;;;21.85;50.51
63773;BME280;49919;53.612;55.898;2022-07-29T04:08:13;99554.22;;;21.99;50.02
63773;BME280;49919;53.612;55.898;2022-07-29T04:09:44;99554.19;;;22.13;50.01
63773;BME280;49919;53.612;55.898;2022-07-29T04:11:15;99552.22;;;22.27;49.37
63773;BME280;49919;53.612;55.898;2022-07-29T04:12:46;99555.63;;;22.41;49.33
63773;BME280;49919;53.612;55.898;2022-07-29T04:14:17;99547.09;;;22.56;48.88
63773;BME280;49919;53.612;55.898;2022-07-29T04:15:47;99546.81;;;22.67;48.60
63773;BME280;49919;53.612;55.898;2022-07-29T04:17:18;99559.59;;;22.75;48.59
63773;BME280;49919;53.612;55.898;2022-07-29T04:18:49;99554.09;;;22.88;48.14
63773;BME280;49919;53.612;55.898;2022-07-29T04:20:19;99553.38;;;23.14;47.67
63773;BME280;49919;53.612;55.898;2022-07-29T04:21:50;99551.78;;;23.39;47.48
63773;BME280;49919;53.612;55.898;2022-07-29T04:23:21;99564.78;;;23.68;46.63
63773;BME280;49919;53.612;55.898;2022-07-29T04:24:52;99561.41;;;23.88;46.12
63773;BME280;49919;53.612;55.898;2022-07-29T04:26:23;99560.16;;;24.03;45.76
63773;BME280;49919;53.612;55.898;2022-07-29T04:27:53;99564.25;;;24.17;45.27
63773;BME280;49919;53.612;55.898;2022-07-29T04:29:30;99554.66;;;24.20;44.85
63773;BME280;49919;53.612;55.898;2022-07-29T04:31:01;99560.09;;;24.29;44.61
63773;BME280;49919;53.612;55.898;2022-07-29T04:32:32;99554.66;;;24.37;44.56
63773;BME280;49919;53.612;55.898;2022-07-29T04:34:02;99556.84;;;24.52;44.26
63773;BME280;49919;53.612;55.898;2022-07-29T04:35:34;99568.00;;;24.59;43.95
63773;BME280;49919;53.612;55.898;2022-07-29T04:37:05;99556.09;;;24.73;43.86
63773;BME280;49919;53.612;55.898;2022-07-29T04:38:36;99556.81;;;24.90;43.37
63773;BME280;49919;53.612;55.898;2022-07-29T04:40:06;99560.16;;;25.05;43.34
63773;BME280;49919;53.612;55.898;2022-07-29T04:41:37;99554.66;;;25.13;42.99
63773;BME280;49919;53.612;55.898;2022-07-29T04:43:08;99557.66;;;25.20;42.84
63773;BME280;49919;53.612;55.898;2022-07-29T04:44:39;99555.34;;;25.31;42.63
63773;BME280;49919;53.612;55.898;2022-07-29T04:46:09;99553.22;;;25.37;42.02
63773;BME280;49919;53.612;55.898;2022-07-29T04:47:40;99556.41;;;25.39;42.01
63773;BME280;49919;53.612;55.898;2022-07-29T04:49:11;99556.97;;;25.53;42.31
63773;BME280;49919;53.612;55.898;2022-07-29T04:50:41;99551.03;;;25.51;42.07
63773;BME280;49919;53.612;55.898;2022-07-29T04:52:12;99547.66;;;25.54;41.66
63773;BME280;49919;53.612;55.898;2022-07-29T04:53:43;99553.75;;;25.51;41.86
63773;BME280;49919;53.612;55.898;2022-07-29T04:55:14;99553.75;;;25.51;41.56
63773;BME280;49919;53.612;55.898;2022-07-29T04:56:44;99548.97;;;25.48;41.60
63773;BME280;49919;53.612;55.898;2022-07-29T04:58:16;99546.41;;;25.51;41.69
63773;BME280;49919;53.612;55.898;2022-07-29T04:59:47;99549.69;;;25.57;41.87
63773;BME280;49919;53.612;55.898;2022-07-29T05:01:19;99549.00;;;25.69;41.87
63773;BME280;49919;53.612;55.898;2022-07-29T05:02:49;99549.50;;;25.83;41.33
63773;BME280;49919;53.612;55.898;2022-07-29T05:04:20;99548.72;;;25.82;41.25
63773;BME280;49919;53.612;55.898;2022-07-29T05:05:51;99544.53;;;25.85;41.38
63773;BME280;49919;53.612;55.898;2022-07-29T05:07:21;99550.56;;;25.90;41.00
63773;BME280;49919;53.612;55.898;2022-07-29T05:08:52;99545.00;;;25.87;40.66
63773;BME280;49919;53.612;55.898;2022-07-29T05:10:25;99545.81;;;26.00;40.66
63773;BME280;49919;53.612;55.898;2022-07-29T05:11:56;99552.00;;;26.09;40.58
63773;BME280;49919;53.612;55.898;2022-07-29T05:13:27;99542.03;;;26.13;40.61
63773;BME280;49919;53.612;55.898;2022-07-29T05:14:58;99542.25;;;26.20;40.21
63773;BME280;49919;53.612;55.898;2022-07-29T05:16:29;99536.25;;;26.26;39.99
63773;BME280;49919;53.612;55.898;2022-07-29T05:17:59;99534.00;;;26.28;40.09
63773;BME280;49919;53.612;55.898;2022-07-29T05:19:30;99538.63;;;26.28;40.18
63773;BME280;49919;53.612;55.898;2022-07-29T05:21:02;99535.66;;;26.21;40.45
63773;BME280;49919;53.612;55.898;2022-07-29T05:22:33;99538.97;;;26.14;40.39
63773;BME280;49919;53.612;55.898;2022-07-29T05:24:04;99538.38;;;26.21;40.22
63773;BME280;49919;53.612;55.898;2022-07-29T05:25:34;99533.72;;;26.21;40.28
63773;BME280;49919;53.612;55.898;2022-07-29T05:27:05;99537.25;;;26.22;40.63
63773;BME280;49919;53.612;55.898;2022-07-29T05:28:36;99536.41;;;26.30;40.56
63773;BME280;49919;53.612;55.898;2022-07-29T05:30:07;99535.75;;;26.33;40.49
63773;BME280;49919;53.612;55.898;2022-07-29T05:31:47;99533.81;;;26.46;40.17
63773;BME280;49919;53.612;55.898;2022-07-29T05:33:17;99532.59;;;26.55;39.93
63773;BME280;49919;53.612;55.898;2022-07-29T05:34:48;99532.00;;;26.50;39.80
63773;BME280;49919;53.612;55.898;2022-07-29T05:36:25;99524.50;;;26.47;40.16
63773;BME280;49919;53.612;55.898;2022-07-29T05:37:55;99526.88;;;26.48;39.95
63773;BME280;49919;53.612;55.898;2022-07-29T05:39:26;99524.16;;;26.48;39.99
63773;BME280;49919;53.612;55.898;2022-07-29T05:40:57;99530.91;;;26.63;39.39
63773;BME280;49919;53.612;55.898;2022-07-29T05:42:29;99521.22;;;26.78;38.76
63773;BME280;49919;53.612;55.898;2022-07-29T05:43:59;99526.34;;;26.79;38.52
63773;BME280;49919;53.612;55.898;2022-07-29T05:45:30;99519.06;;;26.83;38.78
63773;BME280;49919;53.612;55.898;2022-07-29T05:47:01;99528.72;;;26.93;38.84
63773;BME280;49919;53.612;55.898;2022-07-29T05:48:31;99516.81;;;26.98;38.53
63773;BME280;49919;53.612;55.898;2022-07-29T05:50:02;99520.78;;;27.00;38.49
63773;BME280;49919;53.612;55.898;2022-07-29T05:51:34;99525.75;;;27.10;38.07
63773;BME280;49919;53.612;55.898;2022-07-29T05:53:05;99522.13;;;27.18;37.82
63773;BME280;49919;53.612;55.898;2022-07-29T05:54:36;99517.13;;;27.20;38.01
63773;BME280;49919;53.612;55.898;2022-07-29T05:56:06;99510.41;;;27.18;38.11
63773;BME280;49919;53.612;55.898;2022-07-29T05:57:37;99518.47;;;27.14;38.44
63773;BME280;49919;53.612;55.898;2022-07-29T05:59:08;99516.66;;;27.18;37.85
63773;BME280;49919;53.612;55.898;2022-07-29T06:00:38;99516.31;;;27.20;37.99
63773;BME280;49919;53.612;55.898;2022-07-29T06:02:10;99512.13;;;27.22;37.80
63773;BME280;49919;53.612;55.898;2022-07-29T06:03:41;99517.06;;;27.33;37.85
63773;BME280;49919;53.612;55.898;2022-07-29T06:05:12;99518.22;;;27.31;37.67
63773;BME280;49919;53.612;55.898;2022-07-29T06:06:43;99511.50;;;27.29;37.58
63773;BME280;49919;53.612;55.898;2022-07-29T06:08:13;99507.41;;;27.35;37.62
63773;BME280;49919;53.612;55.898;2022-07-29T06:09:44;99504.56;;;27.31;37.58
63773;BME280;49919;53.612;55.898;2022-07-29T06:11:15;99511.63;;;27.33;37.08
63773;BME280;49919;53.612;55.898;2022-07-29T06:12:45;99502.97;;;27.43;37.03
63773;BME280;49919;53.612;55.898;2022-07-29T06:14:16;99501.31;;;27.54;37.18
63773;BME280;49919;53.612;55.898;2022-07-29T06:15:47;99502.44;;;27.65;36.73
63773;BME280;49919;53.612;55.898;2022-07-29T06:17:17;99503.34;;;27.69;36.16
63773;BME280;49919;53.612;55.898;2022-07-29T06:18:48;99500.00;;;27.76;35.75
63773;BME280;49919;53.612;55.898;2022-07-29T06:20:19;99497.78;;;27.66;36.04
63773;BME280;49919;53.612;55.898;2022-07-29T06:21:52;99507.75;;;27.74;36.04
63773;BME280;49919;53.612;55.898;2022-07-29T06:23:23;99507.00;;;27.89;36.05
63773;BME280;49919;53.612;55.898;2022-07-29T06:24:56;99502.81;;;28.07;35.82
63773;BME280;49919;53.612;55.898;2022-07-29T06:26:27;99499.28;;;28.07;35.54
63773;BME280;49919;53.612;55.898;2022-07-29T06:27:57;99495.56;;;27.99;35.45
63773;BME280;49919;53.612;55.898;2022-07-29T06:29:28;99494.06;;;28.02;35.42
63773;BME280;49919;53.612;55.898;2022-07-29T06:30:59;99496.78;;;28.02;35.40
63773;BME280;49919;53.612;55.898;2022-07-29T06:32:30;99501.47;;;28.17;35.54
63773;BME280;49919;53.612;55.898;2022-07-29T06:34:01;99505.56;;;28.23;35.10
63773;BME280;49919;53.612;55.898;2022-07-29T06:35:35;99495.53;;;28.27;35.32
63773;BME280;49919;53.612;55.898;2022-07-29T06:37:06;99504.78;;;28.38;34.81
63773;BME280;49919;53.612;55.898;2022-07-29T06:38:37;99499.59;;;28.33;34.92
63773;BME280;49919;53.612;55.898;2022-07-29T06:40:08;99514.31;;;28.44;35.15
63773;BME280;49919;53.612;55.898;2022-07-29T06:41:58;99499.69;;;28.52;33.73
63773;BME280;49919;53.612;55.898;2022-07-29T06:43:29;99508.56;;;28.65;33.54
63773;BME280;49919;53.612;55.898;2022-07-29T06:45:02;99504.06;;;28.73;33.31
63773;BME280;49919;53.612;55.898;2022-07-29T06:46:33;99506.38;;;28.71;33.21
63773;BME280;49919;53.612;55.898;2022-07-29T06:48:04;99512.38;;;28.76;33.47
63773;BME280;49919;53.612;55.898;2022-07-29T06:49:35;99503.44;;;28.95;32.90
63773;BME280;49919;53.612;55.898;2022-07-29T06:51:06;99509.44;;;29.01;32.70
63773;BME280;49919;53.612;55.898;2022-07-29T06:52:36;99499.50;;;29.12;32.54
63773;BME280;49919;53.612;55.898;2022-07-29T06:54:07;99502.41;;;29.19;32.48
63773;BME280;49919;53.612;55.898;2022-07-29T06:55:42;99500.09;;;29.21;32.62
63773;BME280;49919;53.612;55.898;2022-07-29T06:57:13;99490.94;;;29.32;32.11
63773;BME280;49919;53.612;55.898;2022-07-29T06:58:44;99486.19;;;29.29;31.31
63773;BME280;49919;53.612;55.898;2022-07-29T07:00:23;99479.50;;;29.27;31.48
63773;BME280;49919;53.612;55.898;2022-07-29T07:01:54;99484.69;;;29.32;31.26
63773;BME280;49919;53.612;55.898;2022-07-29T07:03:25;99486.72;;;29.35;31.33
63773;BME280;49919;53.612;55.898;2022-07-29T07:04:56;99493.56;;;29.45;31.50
63773;BME280;49919;53.612;55.898;2022-07-29T07:06:27;99489.13;;;29.56;31.79
63773;BME280;49919;53.612;55.898;2022-07-29T07:07:58;99488.94;;;29.68;31.23
63773;BME280;49919;53.612;55.898;2022-07-29T07:09:28;99491.69;;;29.68;31.24
63773;BME280;49919;53.612;55.898;2022-07-29T07:10:59;99494.44;;;29.68;31.19
63773;BME280;49919;53.612;55.898;2022-07-29T07:12:34;99501.34;;;29.81;31.31
63773;BME280;49919;53.612;55.898;2022-07-29T07:14:05;99498.31;;;29.86;31.10
63773;BME280;49919;53.612;55.898;2022-07-29T07:15:36;99493.31;;;29.92;30.93
63773;BME280;49919;53.612;55.898;2022-07-29T07:17:10;99501.88;;;30.10;31.13
63773;BME280;49919;53.612;55.898;2022-07-29T07:18:40;99495.31;;;30.14;31.10
63773;BME280;49919;53.612;55.898;2022-07-29T07:20:12;99487.53;;;30.16;31.19
63773;BME280;49919;53.612;55.898;2022-07-29T07:21:43;99489.47;;;30.16;30.98
63773;BME280;49919;53.612;55.898;2022-07-29T07:23:18;99488.03;;;30.22;31.26
63773;BME280;49919;53.612;55.898;2022-07-29T07:24:52;99499.28;;;30.40;31.02
63773;BME280;49919;53.612;55.898;2022-07-29T07:26:22;99499.59;;;30.57;30.69
63773;BME280;49919;53.612;55.898;2022-07-29T07:27:56;99493.63;;;30.78;30.67
63773;BME280;49919;53.612;55.898;2022-07-29T07:29:36;99501.25;;;30.88;30.58
63773;BME280;49919;53.612;55.898;2022-07-29T07:31:10;99493.16;;;30.99;30.51
63773;BME280;49919;53.612;55.898;2022-07-29T07:32:41;99492.47;;;31.06;29.81
63773;BME280;49919;53.612;55.898;2022-07-29T07:34:12;99490.66;;;31.13;29.76
63773;BME280;49919;53.612;55.898;2022-07-29T07:35:51;99488.41;;;31.22;29.62
63773;BME280;49919;53.612;55.898;2022-07-29T07:37:29;99485.44;;;31.34;28.96
63773;BME280;49919;53.612;55.898;2022-07-29T07:39:09;99485.28;;;31.54;29.00
63773;BME280;49919;53.612;55.898;2022-07-29T07:41:05;99481.41;;;31.62;28.66
63773;BME280;49919;53.612;55.898;2022-07-29T07:42:37;99486.53;;;31.60;29.10
63773;BME280;49919;53.612;55.898;2022-07-29T07:44:08;99487.19;;;31.50;28.99
63773;BME280;49919;53.612;55.898;2022-07-29T07:45:39;99486.75;;;31.48;28.93
63773;BME280;49919;53.612;55.898;2022-07-29T07:47:10;99487.69;;;31.59;28.86
63773;BME280;49919;53.612;55.898;2022-07-29T07:48:41;99487.44;;;31.71;28.96
63773;BME280;49919;53.612;55.898;2022-07-29T07:50:11;99473.56;;;31.94;28.66
63773;BME280;49919;53.612;55.898;2022-07-29T07:51:42;99475.63;;;32.04;28.41
63773;BME280;49919;53.612;55.898;2022-07-29T07:53:13;99474.03;;;32.03;28.34
63773;BME280;49919;53.612;55.898;2022-07-29T07:54:44;99479.22;;;32.12;28.14
63773;BME280;49919;53.612;55.898;2022-07-29T07:56:15;99475.72;;;32.15;28.39
63773;BME280;49919;53.612;55.898;2022-07-29T07:57:47;99474.34;;;32.35;27.90
63773;BME280;49919;53.612;55.898;2022-07-29T07:59:18;99477.50;;;32.37;27.67
63773;BME280;49919;53.612;55.898;2022-07-29T08:00:51;99467.59;;;32.25;27.84
63773;BME280;49919;53.612;55.898;2022-07-29T08:02:22;99471.19;;;32.33;27.64
63773;BME280;49919;53.612;55.898;2022-07-29T08:03:53;99477.47;;;32.33;27.84
63773;BME280;49919;53.612;55.898;2022-07-29T08:05:29;99473.66;;;32.45;27.93
63773;BME280;49919;53.612;55.898;2022-07-29T08:07:00;99470.06;;;32.41;27.89
63773;BME280;49919;53.612;55.898;2022-07-29T08:08:32;99474.28;;;32.28;28.04